Time;durP1;ratioP1;P1;durP2;ratioP2;P2;SDS_P1;SDS_P2;PMS_P1;PMS_P2;Temp;Humidity;BMP_temperature;BMP_pressure;BME280_temperature;BME280_humidity;BME280_pressure;Samples;Min_cycle;Max_cycle;Signal;HPM_P1;HPM_P2
2021/05/30 00:00:09;;;;;;;2.30;2.20;;;;;;;;;;5070299;28;20239;-87
2021/05/30 00:02:36;;;;;;;3.60;2.30;;;;;;;;;;5071492;28;20234;-87
2021/05/30 00:05:02;;;;;;;3.00;2.60;;;;;;;;;;5070870;28;20219;-87
2021/05/30 00:07:28;;;;;;;7.10;2.57;;;;;;;;;;5070001;28;20307;-85
2021/05/30 00:09:54;;;;;;;3.17;2.20;;;;;;;;;;5070305;28;20227;-85
2021/05/30 00:12:22;;;;;;;2.77;2.10;;;;;;;;;;5070423;28;20202;-86
2021/05/30 00:14:48;;;;;;;2.40;2.30;;;;;;;;;;5070224;28;20646;-86
2021/05/30 00:17:15;;;;;;;2.53;2.37;;;;;;;;;;5069940;28;20246;-85
2021/05/30 00:19:41;;;;;;;2.50;2.30;;;;;;;;;;5071422;28;20183;-85
2021/05/30 00:22:08;;;;;;;2.43;2.23;;;;;;;;;;5070142;28;20209;-86
2021/05/30 00:24:34;;;;;;;4.43;2.57;;;;;;;;;;5070554;28;20257;-85
2021/05/30 00:27:01;;;;;;;2.23;2.13;;;;;;;;;;5069961;27;20272;-86
2021/05/30 00:29:28;;;;;;;2.40;2.20;;;;;;;;;;5069841;28;20247;-86
2021/05/30 00:31:54;;;;;;;2.53;2.40;;;;;;;;;;5069713;28;20595;-86
2021/05/30 00:34:20;;;;;;;2.73;2.50;;;;;;;;;;5070730;28;20219;-86
2021/05/30 00:36:46;;;;;;;2.87;2.67;;;;;;;;;;5069805;28;20963;-86
2021/05/30 00:39:13;;;;;;;2.97;2.50;;;;;;;;;;5069884;28;20186;-86
2021/05/30 00:41:39;;;;;;;3.37;2.80;;;;;;;;;;5069865;28;20220;-86
2021/05/30 00:44:19;;;;;;;3.07;2.87;;;;;;;;;;5069676;28;20242;-86
2021/05/30 00:46:46;;;;;;;3.93;2.87;;;;;;;;;;5069531;28;20263;-85
2021/05/30 00:49:12;;;;;;;5.07;2.93;;;;;;;;;;5069696;28;20255;-85
2021/05/30 00:51:38;;;;;;;2.77;2.57;;;;;;;;;;5070947;28;20209;-86
2021/05/30 00:54:04;;;;;;;6.40;3.47;;;;;;;;;;5071564;28;20303;-86
2021/05/30 00:56:30;;;;;;;2.70;2.50;;;;;;;;;;5070798;28;20521;-87
2021/05/30 00:58:56;;;;;;;2.90;2.70;;;;;;;;;;5069898;28;20244;-86
2021/05/30 01:01:23;;;;;;;3.20;3.03;;;;;;;;;;5069884;28;20207;-86
2021/05/30 01:03:50;;;;;;;3.37;2.80;;;;;;;;;;5070897;28;20253;-87
2021/05/30 01:06:16;;;;;;;2.60;2.50;;;;;;;;;;5069450;28;20658;-88
2021/05/30 01:08:42;;;;;;;3.50;3.20;;;;;;;;;;5070060;28;20528;-88
2021/05/30 01:11:13;;;;;;;3.20;3.00;;;;;;;;;;5070173;28;20682;-86
2021/05/30 01:13:39;;;;;;;3.47;3.10;;;;;;;;;;5069309;28;20718;-86
2021/05/30 01:16:06;;;;;;;3.43;3.13;;;;;;;;;;5070264;28;20202;-86
2021/05/30 01:18:32;;;;;;;3.40;3.10;;;;;;;;;;5070051;28;20202;-86
2021/05/30 01:20:59;;;;;;;3.63;3.30;;;;;;;;;;5069284;28;20198;-86
2021/05/30 01:23:26;;;;;;;3.40;3.10;;;;;;;;;;5069781;28;20248;-86
2021/05/30 01:25:52;;;;;;;3.37;3.20;;;;;;;;;;5068988;28;20757;-86
2021/05/30 01:28:19;;;;;;;3.70;3.40;;;;;;;;;;5087215;27;20225;-86
2021/05/30 01:30:46;;;;;;;3.70;3.40;;;;;;;;;;5072707;28;20191;-87
2021/05/30 01:33:12;;;;;;;4.00;3.73;;;;;;;;;;5090306;28;20206;-86
2021/05/30 01:35:38;;;;;;;7.50;3.70;;;;;;;;;;5074049;28;20182;-87
2021/05/30 01:38:04;;;;;;;4.43;3.80;;;;;;;;;;5075654;28;20661;-86
2021/05/30 01:40:31;;;;;;;4.57;3.93;;;;;;;;;;5076012;28;20714;-87
2021/05/30 01:42:58;;;;;;;3.80;3.50;;;;;;;;;;5075868;28;20237;-86
2021/05/30 01:45:25;;;;;;;3.67;3.47;;;;;;;;;;5094123;28;20225;-85
2021/05/30 01:47:51;;;;;;;4.73;3.90;;;;;;;;;;5075776;28;20202;-87
2021/05/30 01:50:18;;;;;;;4.30;3.90;;;;;;;;;;5075800;28;20194;-86
2021/05/30 01:52:44;;;;;;;5.63;4.07;;;;;;;;;;5075674;28;20250;-86
2021/05/30 01:55:17;;;;;;;3.90;3.60;;;;;;;;;;5075732;28;20198;-87
2021/05/30 01:57:45;;;;;;;4.00;3.70;;;;;;;;;;5076032;28;20202;-86
2021/05/30 02:00:12;;;;;;;5.57;3.80;;;;;;;;;;5075240;28;20205;-86
2021/05/30 02:02:38;;;;;;;4.23;3.83;;;;;;;;;;5075687;28;20227;-87
2021/05/30 02:05:04;;;;;;;4.83;4.00;;;;;;;;;;5093585;28;20626;-86
2021/05/30 02:07:32;;;;;;;4.80;4.30;;;;;;;;;;5093159;28;20214;-86
2021/05/30 02:09:58;;;;;;;6.13;4.27;;;;;;;;;;5075063;28;20222;-87
2021/05/30 02:12:25;;;;;;;5.60;4.10;;;;;;;;;;5075399;28;20198;-86
2021/05/30 02:14:54;;;;;;;4.30;4.00;;;;;;;;;;5075550;28;20194;-85
2021/05/30 02:17:20;;;;;;;4.70;4.40;;;;;;;;;;5093410;28;20530;-86
2021/05/30 02:19:46;;;;;;;5.10;4.60;;;;;;;;;;5075159;28;20206;-86
2021/05/30 02:22:12;;;;;;;5.30;4.80;;;;;;;;;;5075639;28;20301;-84
2021/05/30 02:24:38;;;;;;;5.07;4.67;;;;;;;;;;5092827;28;20257;-86
2021/05/30 02:27:04;;;;;;;5.90;4.30;;;;;;;;;;5092404;27;20240;-87
2021/05/30 02:29:34;;;;;;;5.10;4.63;;;;;;;;;;5092868;28;20208;-86
2021/05/30 02:32:02;;;;;;;5.40;4.87;;;;;;;;;;5093010;28;20233;-86
2021/05/30 02:34:28;;;;;;;5.70;4.93;;;;;;;;;;5075002;28;20222;-86
2021/05/30 02:36:54;;;;;;;5.30;4.90;;;;;;;;;;5094004;27;20875;-86
2021/05/30 02:39:20;;;;;;;5.27;4.77;;;;;;;;;;5074602;28;20197;-86
2021/05/30 02:41:46;;;;;;;5.47;4.80;;;;;;;;;;5092772;28;20210;-86
2021/05/30 02:44:12;;;;;;;5.87;5.20;;;;;;;;;;5075665;28;20241;-86
2021/05/30 02:46:39;;;;;;;6.70;5.27;;;;;;;;;;5074496;28;20206;-86
2021/05/30 02:49:06;;;;;;;5.80;5.17;;;;;;;;;;5074312;28;20202;-86
2021/05/30 02:51:33;;;;;;;5.60;5.10;;;;;;;;;;5074801;28;20223;-86
2021/05/30 02:53:59;;;;;;;6.57;5.20;;;;;;;;;;5092675;28;20217;-86
2021/05/30 02:56:25;;;;;;;6.70;5.27;;;;;;;;;;5092751;28;20206;-86
2021/05/30 02:58:51;;;;;;;6.47;5.07;;;;;;;;;;5074740;28;20201;-86
2021/05/30 03:01:17;;;;;;;6.40;5.80;;;;;;;;;;5074492;28;20246;-87
2021/05/30 03:03:44;;;;;;;5.73;5.20;;;;;;;;;;5074289;28;20213;-87
2021/05/30 03:06:11;;;;;;;5.47;5.07;;;;;;;;;;5075306;28;20227;-87
2021/05/30 03:08:37;;;;;;;5.73;5.10;;;;;;;;;;5074402;28;20206;-87
2021/05/30 03:11:03;;;;;;;6.60;5.50;;;;;;;;;;5075009;27;20611;-86
2021/05/30 03:13:29;;;;;;;6.93;5.63;;;;;;;;;;5074091;28;20223;-86
2021/05/30 03:15:55;;;;;;;7.93;6.17;;;;;;;;;;5092960;28;20174;-87
2021/05/30 03:18:21;;;;;;;6.33;5.73;;;;;;;;;;5074436;27;20242;-86
2021/05/30 03:20:48;;;;;;;6.37;5.77;;;;;;;;;;5074588;28;20206;-86
2021/05/30 03:23:15;;;;;;;6.23;5.73;;;;;;;;;;5074320;28;20553;-86
2021/05/30 03:25:41;;;;;;;9.83;5.87;;;;;;;;;;5073923;28;20214;-86
2021/05/30 03:28:07;;;;;;;8.37;5.63;;;;;;;;;;5092133;27;20233;-86
2021/05/30 03:30:33;;;;;;;6.43;5.83;;;;;;;;;;5074135;28;20189;-86
2021/05/30 03:33:00;;;;;;;9.27;6.40;;;;;;;;;;5073833;28;20555;-86
2021/05/30 03:35:26;;;;;;;7.77;6.00;;;;;;;;;;5074072;28;20221;-85
2021/05/30 03:37:53;;;;;;;6.93;5.43;;;;;;;;;;5073823;28;20211;-86
2021/05/30 03:40:29;;;;;;;5.90;5.33;;;;;;;;;;5074152;28;20194;-86
2021/05/30 03:42:56;;;;;;;6.53;5.87;;;;;;;;;;5074596;28;20222;-86
2021/05/30 03:45:23;;;;;;;6.80;6.10;;;;;;;;;;5074431;28;20243;-86
2021/05/30 03:47:49;;;;;;;6.30;5.70;;;;;;;;;;5074215;28;20198;-86
2021/05/30 03:50:15;;;;;;;6.63;5.93;;;;;;;;;;5091504;28;20178;-85
2021/05/30 03:52:41;;;;;;;6.63;6.03;;;;;;;;;;5091777;28;20174;-85
2021/05/30 03:55:09;;;;;;;11.07;6.23;;;;;;;;;;5073222;28;20650;-85
2021/05/30 03:57:36;;;;;;;7.30;6.50;;;;;;;;;;5072857;28;20213;-85
2021/05/30 04:00:03;;;;;;;7.30;6.37;;;;;;;;;;5073459;28;20198;-85
2021/05/30 04:02:29;;;;;;;7.17;6.47;;;;;;;;;;5073206;28;20601;-84
2021/05/30 04:04:55;;;;;;;6.80;6.20;;;;;;;;;;5074157;28;20744;-85
2021/05/30 04:07:22;;;;;;;11.60;6.70;;;;;;;;;;5072763;28;20664;-85
2021/05/30 04:09:48;;;;;;;7.40;6.23;;;;;;;;;;5072999;28;20656;-85
2021/05/30 04:12:14;;;;;;;6.80;6.10;;;;;;;;;;5073578;28;20227;-85
2021/05/30 04:14:41;;;;;;;7.40;6.70;;;;;;;;;;5073359;28;20190;-86
2021/05/30 04:17:07;;;;;;;7.70;6.60;;;;;;;;;;5073357;28;20221;-84
2021/05/30 04:19:33;;;;;;;7.43;6.80;;;;;;;;;;5073203;28;20206;-86
2021/05/30 04:22:00;;;;;;;7.13;6.43;;;;;;;;;;5092327;28;20214;-85
2021/05/30 04:24:26;;;;;;;7.80;6.57;;;;;;;;;;5073034;28;20214;-85
2021/05/30 04:26:52;;;;;;;7.47;6.83;;;;;;;;;;5069084;27;20238;-84
2021/05/30 04:29:18;;;;;;;7.37;6.67;;;;;;;;;;5069878;28;20202;-86
2021/05/30 04:31:45;;;;;;;8.13;6.90;;;;;;;;;;5070245;28;20202;-87
2021/05/30 04:34:12;;;;;;;7.00;6.40;;;;;;;;;;5069715;28;20259;-87
2021/05/30 04:36:39;;;;;;;7.13;6.37;;;;;;;;;;5071052;28;20209;-87
2021/05/30 04:39:05;;;;;;;7.40;6.47;;;;;;;;;;5072073;27;20214;-87
2021/05/30 04:41:31;;;;;;;8.67;6.80;;;;;;;;;;5070161;28;20248;-86
2021/05/30 04:43:57;;;;;;;7.77;6.93;;;;;;;;;;5070012;28;20221;-87
2021/05/30 04:46:24;;;;;;;8.80;6.93;;;;;;;;;;5069783;28;20222;-86
2021/05/30 04:48:51;;;;;;;10.00;7.50;;;;;;;;;;5070115;28;20215;-87
2021/05/30 04:51:17;;;;;;;12.33;7.17;;;;;;;;;;5070870;28;20210;-86
2021/05/30 04:53:44;;;;;;;8.43;7.23;;;;;;;;;;5069852;28;20251;-86
2021/05/30 04:56:11;;;;;;;7.73;6.93;;;;;;;;;;5069780;28;20190;-86
2021/05/30 04:58:37;;;;;;;9.67;7.03;;;;;;;;;;5070020;28;20531;-86
2021/05/30 05:01:04;;;;;;;7.13;6.43;;;;;;;;;;5069829;28;20191;-86
2021/05/30 05:03:31;;;;;;;8.37;7.13;;;;;;;;;;5069935;28;20206;-87
2021/05/30 05:05:58;;;;;;;9.10;7.30;;;;;;;;;;5069350;28;20218;-87
2021/05/30 05:08:24;;;;;;;7.27;6.67;;;;;;;;;;5071254;27;20226;-86
2021/05/30 05:10:50;;;;;;;8.17;7.23;;;;;;;;;;5071243;28;20251;-86
2021/05/30 05:13:18;;;;;;;7.73;6.97;;;;;;;;;;5073342;28;20251;-87
2021/05/30 05:15:44;;;;;;;9.67;7.20;;;;;;;;;;5075927;27;20214;-87
2021/05/30 05:18:11;;;;;;;7.17;6.53;;;;;;;;;;5073540;28;20202;-86
2021/05/30 05:20:37;;;;;;;8.20;7.03;;;;;;;;;;5072901;28;20195;-86
2021/05/30 05:23:04;;;;;;;8.70;7.07;;;;;;;;;;5073714;28;20206;-86
2021/05/30 05:25:32;;;;;;;7.80;6.80;;;;;;;;;;5072483;28;20682;-86
2021/05/30 05:27:58;;;;;;;8.87;6.40;;;;;;;;;;5072826;27;20725;-86
2021/05/30 05:30:25;;;;;;;7.83;7.10;;;;;;;;;;5073923;28;20550;-86
2021/05/30 05:32:51;;;;;;;8.13;6.80;;;;;;;;;;5074114;28;20202;-86
2021/05/30 05:35:17;;;;;;;7.87;6.83;;;;;;;;;;5075205;27;20207;-86
2021/05/30 05:37:43;;;;;;;8.80;7.37;;;;;;;;;;5072845;28;20932;-86
2021/05/30 05:40:11;;;;;;;7.80;7.10;;;;;;;;;;5073837;28;20171;-87
2021/05/30 05:42:38;;;;;;;8.10;7.30;;;;;;;;;;5073804;28;20175;-86
2021/05/30 05:45:05;;;;;;;7.67;6.97;;;;;;;;;;5072659;28;20219;-86
2021/05/30 05:47:31;;;;;;;8.57;7.20;;;;;;;;;;5073604;28;20207;-86
2021/05/30 05:49:57;;;;;;;12.70;7.47;;;;;;;;;;5073221;28;20202;-86
2021/05/30 05:52:23;;;;;;;7.80;7.00;;;;;;;;;;5074408;28;20215;-86
2021/05/30 05:54:50;;;;;;;6.93;6.33;;;;;;;;;;5072523;28;20553;-86
2021/05/30 05:57:17;;;;;;;7.50;6.43;;;;;;;;;;5073037;28;20203;-86
2021/05/30 05:59:43;;;;;;;7.40;6.70;;;;;;;;;;5072401;28;20206;-86
2021/05/30 06:02:09;;;;;;;7.60;6.87;;;;;;;;;;5073420;28;20179;-86
2021/05/30 06:04:35;;;;;;;9.87;7.00;;;;;;;;;;5072572;28;20215;-86
2021/05/30 06:07:01;;;;;;;8.00;7.27;;;;;;;;;;5073520;28;20243;-86
2021/05/30 06:09:28;;;;;;;8.17;6.93;;;;;;;;;;5074694;27;20218;-86
2021/05/30 06:11:54;;;;;;;8.63;6.63;;;;;;;;;;5072202;28;20198;-86
2021/05/30 06:14:21;;;;;;;8.47;6.70;;;;;;;;;;5073591;28;20666;-87
2021/05/30 06:16:47;;;;;;;10.33;6.83;;;;;;;;;;5072554;28;20271;-86
2021/05/30 06:19:13;;;;;;;7.93;7.00;;;;;;;;;;5072091;28;20575;-86
2021/05/30 06:21:40;;;;;;;9.17;6.80;;;;;;;;;;5072591;28;20534;-86
2021/05/30 06:24:06;;;;;;;7.30;6.60;;;;;;;;;;5071843;28;20214;-86
2021/05/30 06:26:32;;;;;;;7.80;6.50;;;;;;;;;;5073656;27;20271;-86
2021/05/30 06:28:58;;;;;;;10.33;6.80;;;;;;;;;;5075842;28;20684;-85
2021/05/30 06:31:25;;;;;;;6.70;6.10;;;;;;;;;;5075276;28;20197;-85
2021/05/30 06:33:52;;;;;;;7.27;6.50;;;;;;;;;;5074793;28;20209;-86
2021/05/30 06:36:19;;;;;;;7.20;6.47;;;;;;;;;;5092287;28;20210;-86
2021/05/30 06:38:45;;;;;;;9.50;6.40;;;;;;;;;;5074881;28;20219;-87
2021/05/30 06:41:11;;;;;;;6.80;6.20;;;;;;;;;;5093307;28;20206;-87
2021/05/30 06:43:37;;;;;;;6.10;5.50;;;;;;;;;;5074438;28;20206;-84
2021/05/30 06:46:03;;;;;;;5.60;5.10;;;;;;;;;;5092383;28;20261;-84
2021/05/30 06:48:30;;;;;;;6.03;5.37;;;;;;;;;;5092591;28;20175;-84
2021/05/30 06:53:37;;;;;;;5.70;4.90;;;;;;;;;;5074003;28;20190;-84
2021/05/30 06:56:03;;;;;;;5.67;5.17;;;;;;;;;;5091959;28;20206;-84
2021/05/30 06:58:29;;;;;;;7.33;5.23;;;;;;;;;;5074458;27;20545;-84
2021/05/30 07:00:55;;;;;;;5.57;5.07;;;;;;;;;;5092543;28;20687;-84
2021/05/30 07:03:22;;;;;;;5.47;4.97;;;;;;;;;;5074496;28;20242;-84
2021/05/30 07:05:49;;;;;;;6.57;5.03;;;;;;;;;;5073916;28;20249;-83
2021/05/30 07:08:15;;;;;;;5.77;5.20;;;;;;;;;;5074175;28;20201;-84
2021/05/30 07:10:41;;;;;;;7.23;4.90;;;;;;;;;;5073660;28;20204;-84
2021/05/30 07:13:07;;;;;;;4.70;4.30;;;;;;;;;;5074156;28;20202;-84
2021/05/30 07:15:33;;;;;;;4.90;4.50;;;;;;;;;;5092077;28;20685;-85
2021/05/30 07:17:59;;;;;;;6.20;4.37;;;;;;;;;;5074708;28;20895;-84
2021/05/30 07:20:25;;;;;;;5.17;4.77;;;;;;;;;;5073429;28;20213;-85
2021/05/30 07:22:52;;;;;;;5.63;4.80;;;;;;;;;;5091655;28;20248;-85
2021/05/30 07:25:19;;;;;;;4.73;4.33;;;;;;;;;;5092723;27;20254;-86
2021/05/30 07:27:45;;;;;;;4.47;4.10;;;;;;;;;;5091821;27;20232;-85
2021/05/30 07:30:11;;;;;;;7.27;4.17;;;;;;;;;;5074063;28;20193;-85
2021/05/30 07:32:37;;;;;;;4.63;4.13;;;;;;;;;;5073580;28;20205;-85
2021/05/30 07:35:04;;;;;;;6.03;4.40;;;;;;;;;;5073758;28;20194;-85
2021/05/30 07:37:30;;;;;;;4.70;4.30;;;;;;;;;;5073195;28;20205;-84
2021/05/30 07:39:57;;;;;;;4.70;4.30;;;;;;;;;;5073543;28;20193;-84
2021/05/30 07:42:23;;;;;;;4.23;3.87;;;;;;;;;;5091571;28;20242;-84
2021/05/30 07:44:50;;;;;;;10.53;4.07;;;;;;;;;;5091564;28;20201;-85
2021/05/30 07:47:16;;;;;;;6.53;4.70;;;;;;;;;;5091640;28;20206;-84
2021/05/30 07:49:42;;;;;;;6.50;4.43;;;;;;;;;;5073963;28;20202;-85
2021/05/30 07:52:08;;;;;;;4.57;4.27;;;;;;;;;;5073304;28;20201;-84
2021/05/30 07:54:34;;;;;;;4.43;4.03;;;;;;;;;;5091973;28;20649;-84
2021/05/30 07:57:01;;;;;;;5.53;4.30;;;;;;;;;;5073478;28;20190;-83
2021/05/30 07:59:27;;;;;;;4.30;4.00;;;;;;;;;;5091702;28;20178;-84
2021/05/30 08:01:54;;;;;;;6.53;4.90;;;;;;;;;;5091150;28;20229;-83
2021/05/30 08:04:20;;;;;;;10.70;4.63;;;;;;;;;;5090883;28;20240;-83
2021/05/30 08:06:46;;;;;;;7.40;5.17;;;;;;;;;;5073097;28;20238;-83
2021/05/30 08:09:12;;;;;;;6.55;5.28;;;;;;;;;;5072996;28;20727;-84
2021/05/30 08:11:39;;;;;;;5.23;4.73;;;;;;;;;;5072476;28;20202;-83
2021/05/30 08:14:06;;;;;;;3.27;3.03;;;;;;;;;;5072440;28;20243;-84
2021/05/30 08:16:32;;;;;;;3.13;2.90;;;;;;;;;;5072903;28;20751;-82
2021/05/30 08:18:58;;;;;;;3.33;2.83;;;;;;;;;;5090922;28;20664;-83
2021/05/30 08:21:24;;;;;;;3.50;3.30;;;;;;;;;;5072847;28;20201;-84
2021/05/30 08:23:50;;;;;;;3.20;2.90;;;;;;;;;;5073910;28;20224;-85
2021/05/30 08:26:16;;;;;;;3.57;2.87;;;;;;;;;;5073013;28;20248;-83
2021/05/30 08:28:42;;;;;;;8.63;5.67;;;;;;;;;;5092221;27;20226;-85
2021/05/30 08:31:09;;;;;;;4.40;4.00;;;;;;;;;;5072768;27;20190;-84
2021/05/30 08:33:36;;;;;;;6.23;3.27;;;;;;;;;;5091831;28;20221;-84
2021/05/30 08:36:02;;;;;;;3.13;2.93;;;;;;;;;;5091557;28;20198;-87
2021/05/30 08:38:28;;;;;;;3.03;2.83;;;;;;;;;;5090534;28;20248;-84
2021/05/30 08:40:55;;;;;;;3.20;3.00;;;;;;;;;;5073152;28;20190;-86
2021/05/30 08:43:21;;;;;;;3.10;2.90;;;;;;;;;;5091131;28;20243;-84
2021/05/30 08:45:47;;;;;;;3.70;3.03;;;;;;;;;;5075915;27;20237;-83
2021/05/30 08:48:14;;;;;;;5.27;4.73;;;;;;;;;;5076771;28;20201;-82
2021/05/30 08:50:41;;;;;;;6.00;4.63;;;;;;;;;;5095316;27;20206;-84
2021/05/30 08:53:08;;;;;;;5.23;4.77;;;;;;;;;;5076582;28;20208;-83
2021/05/30 08:55:34;;;;;;;3.03;2.93;;;;;;;;;;5075543;28;20193;-85
2021/05/30 08:58:00;;;;;;;3.07;2.87;;;;;;;;;;5076192;28;20523;-84
2021/05/30 09:00:27;;;;;;;4.93;3.20;;;;;;;;;;5093890;28;20661;-84
2021/05/30 09:03:09;;;;;;;4.60;4.20;;;;;;;;;;5076024;28;20226;-84
2021/05/30 09:05:36;;;;;;;4.40;4.00;;;;;;;;;;5093887;28;20689;-83
2021/05/30 09:08:02;;;;;;;4.10;3.80;;;;;;;;;;5075660;28;20198;-84
2021/05/30 09:10:29;;;;;;;3.37;3.07;;;;;;;;;;5075949;28;20207;-83
2021/05/30 09:13:06;;;;;;;4.50;4.20;;;;;;;;;;5094124;28;20190;-84
2021/05/30 09:15:52;;;;;;;4.80;4.40;;;;;;;;;;5075688;28;20563;-83
2021/05/30 09:18:19;;;;;;;4.50;4.10;;;;;;;;;;5093320;27;20227;-84
2021/05/30 09:20:53;;;;;;;4.00;3.50;;;;;;;;;;5093611;28;20181;-83
2021/05/30 09:23:30;;;;;;;3.57;3.33;;;;;;;;;;5092928;28;20201;-83
2021/05/30 09:26:06;;;;;;;4.90;4.10;;;;;;;;;;5093068;27;20269;-83
2021/05/30 09:28:32;;;;;;;4.20;3.80;;;;;;;;;;5092751;27;20804;-83
2021/05/30 09:31:00;;;;;;;4.03;3.73;;;;;;;;;;5092788;28;20210;-84
2021/05/30 09:33:29;;;;;;;3.93;3.63;;;;;;;;;;5093815;28;20246;-85
2021/05/30 09:36:02;;;;;;;3.40;3.20;;;;;;;;;;5073425;28;20207;-84
2021/05/30 09:38:31;;;;;;;3.37;3.17;;;;;;;;;;5057313;28;20202;-84
2021/05/30 09:40:58;;;;;;;4.53;3.50;;;;;;;;;;5058410;28;20207;-83
2021/05/30 09:43:25;;;;;;;3.43;3.17;;;;;;;;;;5073661;28;20190;-82
2021/05/30 09:45:59;;;;;;;3.87;3.57;;;;;;;;;;5056094;28;20238;-84
2021/05/30 09:48:26;;;;;;;3.70;3.40;;;;;;;;;;5056169;28;20194;-84
2021/05/30 09:51:04;;;;;;;4.03;3.50;;;;;;;;;;5055791;28;20187;-83
2021/05/30 09:53:48;;;;;;;5.17;3.60;;;;;;;;;;5073961;28;20171;-84
2021/05/30 09:56:25;;;;;;;3.67;3.10;;;;;;;;;;5073100;28;21031;-83
2021/05/30 09:58:52;;;;;;;3.00;2.80;;;;;;;;;;5074280;28;20210;-86
2021/05/30 10:01:18;;;;;;;2.93;2.73;;;;;;;;;;5054888;28;20228;-86
2021/05/30 10:03:44;;;;;;;3.00;2.80;;;;;;;;;;5072890;28;20220;-85
2021/05/30 10:06:11;;;;;;;2.87;2.77;;;;;;;;;;5055521;28;20250;-84
2021/05/30 10:08:38;;;;;;;2.63;2.53;;;;;;;;;;5055277;28;20220;-84
2021/05/30 10:11:04;;;;;;;3.10;2.80;;;;;;;;;;5054083;28;20207;-84
2021/05/30 10:13:31;;;;;;;3.10;2.80;;;;;;;;;;5055382;28;20322;-85
2021/05/30 10:15:59;;;;;;;3.83;3.13;;;;;;;;;;5079724;28;20545;-87
2021/05/30 10:18:28;;;;;;;3.03;2.77;;;;;;;;;;5092783;28;20242;-88
2021/05/30 10:20:55;;;;;;;1.80;1.70;;;;;;;;;;5092115;28;20206;-83
2021/05/30 10:23:23;;;;;;;1.55;1.48;;;;;;;;;;5091252;28;20250;-83
2021/05/30 10:25:50;;;;;;;2.10;1.90;;;;;;;;;;5091641;28;20230;-83
2021/05/30 10:28:16;;;;;;;2.00;1.90;;;;;;;;;;5092787;27;20261;-87
2021/05/30 10:30:44;;;;;;;2.67;1.77;;;;;;;;;;5091387;28;20552;-87
2021/05/30 10:33:12;;;;;;;2.33;1.73;;;;;;;;;;5090884;28;20198;-84
2021/05/30 10:35:39;;;;;;;2.38;2.00;;;;;;;;;;5090898;28;20198;-82
2021/05/30 10:38:05;;;;;;;5.95;2.05;;;;;;;;;;5091203;28;20242;-79
2021/05/30 10:40:34;;;;;;;2.33;1.67;;;;;;;;;;5091123;28;20557;-80
2021/05/30 10:43:20;;;;;;;2.00;1.90;;;;;;;;;;5091236;28;20197;-80
2021/05/30 10:46:04;;;;;;;2.90;1.88;;;;;;;;;;5073250;28;20253;-81
2021/05/30 10:48:30;;;;;;;2.95;1.98;;;;;;;;;;5090299;28;20747;-79
2021/05/30 10:51:02;;;;;;;1.75;1.70;;;;;;;;;;5091923;28;20179;-80
2021/05/30 10:53:36;;;;;;;1.73;1.63;;;;;;;;;;5091294;28;20577;-79
2021/05/30 10:56:26;;;;;;;2.05;1.90;;;;;;;;;;5092190;28;20585;-80
2021/05/30 10:59:12;;;;;;;1.88;1.77;;;;;;;;;;5090765;28;20219;-78
2021/05/30 11:01:40;;;;;;;1.85;1.80;;;;;;;;;;5091359;27;20205;-79
2021/05/30 11:04:25;;;;;;;1.80;1.70;;;;;;;;;;5092373;27;20235;-82
2021/05/30 11:06:52;;;;;;;1.73;1.73;;;;;;;;;;5090003;28;20215;-81
2021/05/30 11:09:18;;;;;;;1.88;1.77;;;;;;;;;;5090229;28;20197;-80
2021/05/30 11:11:44;;;;;;;3.85;1.77;;;;;;;;;;5090201;28;20607;-82
2021/05/30 11:14:11;;;;;;;2.10;1.75;;;;;;;;;;5092499;27;20214;-80
2021/05/30 11:16:42;;;;;;;1.55;1.48;;;;;;;;;;5090545;28;20833;-81
2021/05/30 11:19:10;;;;;;;1.83;1.60;;;;;;;;;;5090301;28;20208;-81
2021/05/30 11:21:38;;;;;;;1.98;1.75;;;;;;;;;;5091692;28;20553;-84
2021/05/30 11:24:05;;;;;;;2.53;1.85;;;;;;;;;;5091265;28;20228;-90
2021/05/30 11:26:31;;;;;;;2.00;1.60;;;;;;;;;;5091764;27;20357;-82
2021/05/30 11:28:58;;;;;;;1.80;1.70;;;;;;;;;;5090884;28;20661;-87
2021/05/30 11:31:25;;;;;;;1.75;1.67;;;;;;;;;;5092480;27;20210;-86
2021/05/30 11:33:56;;;;;;;2.33;2.22;;;;;;;;;;5091277;28;20724;-91
2021/05/30 11:36:27;;;;;;;3.67;2.00;;;;;;;;;;5089158;28;20755;-82
2021/05/30 11:38:55;;;;;;;7.13;1.70;;;;;;;;;;5090476;28;20552;-82
2021/05/30 11:41:23;;;;;;;2.47;1.70;;;;;;;;;;5090723;27;20206;-80
2021/05/30 11:44:00;;;;;;;1.85;1.60;;;;;;;;;;5091482;28;20185;-83
2021/05/30 11:46:27;;;;;;;1.60;1.60;;;;;;;;;;5090456;28;20668;-81
2021/05/30 11:49:02;;;;;;;2.50;2.00;;;;;;;;;;5089850;28;20201;-79
2021/05/30 11:52:02;;;;;;;2.50;2.40;;;;;;;;;;5089845;28;20193;-80
2021/05/30 11:54:29;;;;;;;4.35;3.67;;;;;;;;;;5089611;28;20182;-78
2021/05/30 11:56:56;;;;;;;2.35;2.25;;;;;;;;;;5089560;28;20725;-79
2021/05/30 11:59:30;;;;;;;4.50;4.20;;;;;;;;;;5089994;28;20605;-79
2021/05/30 12:01:56;;;;;;;2.58;1.92;;;;;;;;;;5090408;27;20640;-80
2021/05/30 12:04:24;;;;;;;2.20;2.10;;;;;;;;;;5089548;28;20661;-81
2021/05/30 12:06:50;;;;;;;2.13;2.03;;;;;;;;;;5087447;28;20241;-79
2021/05/30 12:09:17;;;;;;;3.70;1.70;;;;;;;;;;5072125;28;20713;-79
2021/05/30 12:11:43;;;;;;;3.72;1.70;;;;;;;;;;5072381;28;20190;-77
2021/05/30 12:14:09;;;;;;;1.67;1.60;;;;;;;;;;5149213;27;20194;-78
2021/05/30 12:16:35;;;;;;;5.90;5.38;;;;;;;;;;5196696;27;20241;-78
2021/05/30 12:19:03;;;;;;;1.52;1.52;;;;;;;;;;5177463;27;20242;-80
2021/05/30 12:21:38;;;;;;;2.95;1.45;;;;;;;;;;5196901;27;20166;-80
2021/05/30 12:24:04;;;;;;;1.70;1.60;;;;;;;;;;5177966;27;20681;-80
2021/05/30 12:26:31;;;;;;;1.50;1.40;;;;;;;;;;5076755;27;20246;-81
2021/05/30 12:28:57;;;;;;;1.70;1.60;;;;;;;;;;5052756;28;20243;-79
2021/05/30 12:31:23;;;;;;;1.50;1.48;;;;;;;;;;5070015;28;20619;-81
2021/05/30 12:33:51;;;;;;;1.75;1.52;;;;;;;;;;5051736;28;20734;-81
2021/05/30 12:36:29;;;;;;;1.70;1.60;;;;;;;;;;5051561;28;20670;-81
2021/05/30 12:38:59;;;;;;;1.88;1.77;;;;;;;;;;5052125;28;20214;-80
2021/05/30 12:41:29;;;;;;;7.10;1.55;;;;;;;;;;5069781;28;20179;-79
2021/05/30 12:44:02;;;;;;;1.88;1.70;;;;;;;;;;5051716;28;20206;-79
2021/05/30 12:46:28;;;;;;;1.80;1.70;;;;;;;;;;5051768;28;20245;-80
2021/05/30 12:48:54;;;;;;;1.85;1.85;;;;;;;;;;5051833;28;20195;-78
2021/05/30 12:51:22;;;;;;;1.80;1.70;;;;;;;;;;5051918;28;20643;-79
2021/05/30 12:53:48;;;;;;;2.85;1.65;;;;;;;;;;5069496;28;20338;-80
2021/05/30 12:56:23;;;;;;;5.18;1.50;;;;;;;;;;5059135;28;20194;-79
2021/05/30 12:59:07;;;;;;;2.78;1.58;;;;;;;;;;5071260;28;20201;-79
2021/05/30 13:01:35;;;;;;;2.88;1.80;;;;;;;;;;5071832;28;20214;-78
2021/05/30 13:04:16;;;;;;;2.90;1.75;;;;;;;;;;5071856;28;20726;-78
2021/05/30 13:06:51;;;;;;;1.60;1.60;;;;;;;;;;5071448;28;20245;-79
2021/05/30 13:09:17;;;;;;;2.00;1.75;;;;;;;;;;5071017;28;20236;-78
2021/05/30 13:11:44;;;;;;;1.88;1.77;;;;;;;;;;5089896;28;20659;-80
2021/05/30 13:14:11;;;;;;;2.88;1.77;;;;;;;;;;5072028;28;20202;-81
2021/05/30 13:16:37;;;;;;;2.10;1.90;;;;;;;;;;5071740;28;20545;-79
2021/05/30 13:19:10;;;;;;;1.90;1.80;;;;;;;;;;5089346;28;20673;-78
2021/05/30 13:21:36;;;;;;;2.00;1.90;;;;;;;;;;5089566;28;20185;-78
2021/05/30 13:24:03;;;;;;;3.03;1.77;;;;;;;;;;5072180;28;20197;-80
2021/05/30 13:26:29;;;;;;;1.90;1.80;;;;;;;;;;5088827;27;20724;-80
2021/05/30 13:28:57;;;;;;;1.80;1.70;;;;;;;;;;5070126;27;20716;-79
2021/05/30 13:31:23;;;;;;;1.80;1.70;;;;;;;;;;5090620;28;20206;-78
2021/05/30 13:33:50;;;;;;;4.15;1.65;;;;;;;;;;5092777;28;20580;-80
2021/05/30 13:36:17;;;;;;;2.25;1.60;;;;;;;;;;5092305;28;20247;-79
2021/05/30 13:38:43;;;;;;;3.50;1.80;;;;;;;;;;5074561;28;20202;-77
2021/05/30 13:41:17;;;;;;;1.98;1.88;;;;;;;;;;5074122;28;20210;-78
2021/05/30 13:43:43;;;;;;;2.00;1.85;;;;;;;;;;5072769;28;20213;-78
2021/05/30 13:46:10;;;;;;;1.88;1.77;;;;;;;;;;5054376;28;20195;-80
2021/05/30 13:48:36;;;;;;;2.15;2.05;;;;;;;;;;5054907;28;20255;-79
2021/05/30 13:51:09;;;;;;;1.55;1.55;;;;;;;;;;5071969;28;20249;-82
2021/05/30 13:53:36;;;;;;;1.90;1.80;;;;;;;;;;5072433;28;20253;-81
2021/05/30 13:56:02;;;;;;;3.25;2.20;;;;;;;;;;5072605;28;20198;-82
2021/05/30 13:58:28;;;;;;;2.00;1.90;;;;;;;;;;5054055;28;20681;-82
2021/05/30 14:00:55;;;;;;;1.90;1.80;;;;;;;;;;5054896;28;20190;-81
2021/05/30 14:03:22;;;;;;;3.55;2.15;;;;;;;;;;5054533;28;20199;-80
2021/05/30 14:05:48;;;;;;;4.25;1.90;;;;;;;;;;5054480;28;20198;-80
2021/05/30 14:08:14;;;;;;;1.88;1.77;;;;;;;;;;5054420;28;20586;-82
2021/05/30 14:10:40;;;;;;;1.85;1.75;;;;;;;;;;5054342;28;20202;-81
2021/05/30 14:13:06;;;;;;;1.73;1.63;;;;;;;;;;5054576;28;20247;-81
2021/05/30 14:15:33;;;;;;;2.03;1.95;;;;;;;;;;5072366;28;20209;-80
2021/05/30 14:17:59;;;;;;;1.90;1.90;;;;;;;;;;5054034;28;20195;-80
2021/05/30 14:20:26;;;;;;;1.85;1.73;;;;;;;;;;5054032;28;20210;-81
2021/05/30 14:22:52;;;;;;;3.42;1.95;;;;;;;;;;5072032;27;20792;-82
2021/05/30 14:25:19;;;;;;;1.90;1.80;;;;;;;;;;5072694;28;20749;-80
2021/05/30 14:27:45;;;;;;;2.78;1.98;;;;;;;;;;5047187;27;20320;-80
2021/05/30 14:30:12;;;;;;;5.47;1.77;;;;;;;;;;5031195;28;20586;-80
2021/05/30 14:32:39;;;;;;;4.60;2.10;;;;;;;;;;5031037;28;20644;-78
2021/05/30 14:35:07;;;;;;;3.25;2.20;;;;;;;;;;5030700;28;20680;-78
2021/05/30 14:37:35;;;;;;;2.25;2.05;;;;;;;;;;5030466;28;20204;-82
2021/05/30 14:40:01;;;;;;;2.17;1.90;;;;;;;;;;5030984;28;20226;-83
2021/05/30 14:42:27;;;;;;;2.17;1.80;;;;;;;;;;5031867;28;20236;-82
2021/05/30 14:44:53;;;;;;;2.08;1.98;;;;;;;;;;5031715;28;20216;-82
2021/05/30 14:47:20;;;;;;;2.15;1.90;;;;;;;;;;5032738;28;20260;-78